createdAt,value
2019-05-07T00:00:35.305Z,101426.27
2019-05-07T00:03:06.497Z,101429.06
2019-05-07T00:05:38.253Z,101428.09
2019-05-07T00:08:09.604Z,101426.28
2019-05-07T00:10:42.535Z,101423.03
2019-05-07T00:13:14.431Z,101426.20
2019-05-07T00:15:46.988Z,101424.16
2019-05-07T00:18:18.202Z,101429.48
2019-05-07T00:20:49.372Z,101429.19
2019-05-07T00:23:23.203Z,101434.64
2019-05-07T00:25:54.193Z,101430.69
2019-05-07T00:28:25.793Z,101431.95
2019-05-07T00:30:57.099Z,101427.41
2019-05-07T00:33:28.576Z,101423.77
2019-05-07T00:36:18.122Z,101421.66
2019-05-07T00:38:53.737Z,101416.22
2019-05-07T00:41:37.815Z,101426.79
2019-05-07T00:44:10.022Z,101419.67
2019-05-07T00:46:44.311Z,101411.88
2019-05-07T00:49:18.788Z,101420.31
2019-05-07T00:51:51.914Z,101420.58
2019-05-07T00:54:24.408Z,101425.70
2019-05-07T00:56:56.096Z,101428.45
2019-05-07T00:59:27.318Z,101427.80
2019-05-07T01:01:58.666Z,101420.22
2019-05-07T01:04:30.355Z,101425.63
2019-05-07T01:07:02.730Z,101431.81
2019-05-07T01:09:34.104Z,101425.33
2019-05-07T01:12:05.475Z,101427.19
2019-05-07T01:14:36.745Z,101422.92
2019-05-07T01:17:08.283Z,101423.20
2019-05-07T01:19:39.670Z,101423.98
2019-05-07T01:22:12.577Z,101412.27
2019-05-07T01:24:44.295Z,101418.81
2019-05-07T01:27:15.798Z,101416.22
2019-05-07T01:29:47.770Z,101415.16
2019-05-07T01:32:34.386Z,101421.68
2019-05-07T01:35:25.537Z,101416.98
2019-05-07T01:37:58.280Z,101417.92
2019-05-07T01:40:32.328Z,101418.12
2019-05-07T01:43:03.228Z,101419.31
2019-05-07T01:45:46.419Z,101421.94
2019-05-07T01:48:09.151Z,101420.31
2019-05-07T01:50:42.804Z,101417.88
2019-05-07T01:53:13.368Z,101421.91
2019-05-07T01:55:44.557Z,101429.39
2019-05-07T01:58:15.713Z,101428.62
2019-05-07T02:00:47.265Z,101427.41
2019-05-07T02:03:24.966Z,101432.36
2019-05-07T02:06:02.209Z,101432.91
2019-05-07T02:09:02.459Z,101435.22
2019-05-07T02:11:42.264Z,101444.53
2019-05-07T02:14:13.743Z,101452.64
2019-05-07T02:16:44.889Z,101462.34
2019-05-07T02:19:16.503Z,101458.45
2019-05-07T02:21:47.734Z,101451.39
2019-05-07T02:24:18.915Z,101442.55
2019-05-07T02:26:52.031Z,101450.28
2019-05-07T02:29:23.102Z,101443.89
2019-05-07T02:31:54.290Z,101445.37
2019-05-07T02:34:25.468Z,101440.89
2019-05-07T02:36:56.663Z,101452.88
2019-05-07T02:39:44.576Z,101445.80
2019-05-07T02:42:16.913Z,101445.34
2019-05-07T02:45:23.992Z,101440.91
2019-05-07T02:47:55.519Z,101444.78
2019-05-07T02:50:45.753Z,101440.25
2019-05-07T02:53:27.555Z,101445.67
2019-05-07T02:55:58.786Z,101446.29
2019-05-07T02:58:32.862Z,101448.55
2019-05-07T03:01:04.890Z,101448.48
2019-05-07T03:03:35.931Z,101440.42
2019-05-07T03:06:07.203Z,101440.17
2019-05-07T03:08:38.446Z,101448.05
2019-05-07T03:11:13.712Z,101445.91
2019-05-07T03:13:43.489Z,101448.58
2019-05-07T03:16:34.437Z,101447.98
2019-05-07T03:18:53.039Z,101445.53
2019-05-07T03:21:23.771Z,101451.92
2019-05-07T03:24:13.831Z,101450.07
2019-05-07T03:26:46.326Z,101463.01
2019-05-07T03:29:23.884Z,101462.84
2019-05-07T03:31:57.664Z,101462.98
2019-05-07T03:34:48.599Z,101453.38
2019-05-07T03:37:23.796Z,101459.12
2019-05-07T03:39:54.976Z,101455.13
2019-05-07T03:42:26.238Z,101458.64
2019-05-07T03:45:13.699Z,101455.19
2019-05-07T03:47:54.190Z,101454.89
2019-05-07T03:50:25.118Z,101460.48
2019-05-07T03:52:56.439Z,101458.33
2019-05-07T03:55:27.676Z,101456.87
2019-05-07T03:57:59.148Z,101463.21
2019-05-07T04:00:33.163Z,101463.55
2019-05-07T04:03:03.795Z,101463.02
2019-05-07T04:05:35.110Z,101461.23
2019-05-07T04:08:06.314Z,101461.63
2019-05-07T04:10:37.545Z,101465.22
2019-05-07T04:13:08.770Z,101464.84
2019-05-07T04:15:43.525Z,101466.05
2019-05-07T04:18:13.401Z,101460.11
2019-05-07T04:20:45.724Z,101463.17
2019-05-07T04:23:17.278Z,101454.19
2019-05-07T04:26:16.522Z,101463.09
2019-05-07T04:28:55.614Z,101471.63
2019-05-07T04:31:29.903Z,101463.23
2019-05-07T04:34:03.877Z,101461.80
2019-05-07T04:36:43.631Z,101462.28
2019-05-07T04:39:15.637Z,101459.12
2019-05-07T04:41:47.702Z,101461.36
2019-05-07T04:44:18.882Z,101463.86
2019-05-07T04:46:53.325Z,101461.14
2019-05-07T04:49:24.111Z,101459.78
2019-05-07T04:52:12.511Z,101461.22
2019-05-07T04:54:46.014Z,101456.62
2019-05-07T04:57:26.359Z,101457.69
2019-05-07T04:59:58.374Z,101453.96
2019-05-07T05:02:43.708Z,101456.52
2019-05-07T05:05:16.299Z,101459.94
2019-05-07T05:07:47.571Z,101463.57
2019-05-07T05:10:18.840Z,101459.88
2019-05-07T05:12:50.100Z,101461.03
2019-05-07T05:15:22.172Z,101467.57
2019-05-07T05:17:54.156Z,101495.67
2019-05-07T05:20:34.938Z,101500.86
2019-05-07T05:23:41.933Z,101495.00
2019-05-07T05:26:13.356Z,101484.19
2019-05-07T05:28:44.640Z,101471.67
2019-05-07T05:31:15.984Z,101471.98
2019-05-07T05:33:47.295Z,101477.64
2019-05-07T05:36:18.950Z,101469.38
2019-05-07T05:38:52.714Z,101469.73
2019-05-07T05:41:27.111Z,101484.67
2019-05-07T05:44:05.653Z,101501.29
2019-05-07T05:46:36.983Z,101500.27
2019-05-07T05:49:08.227Z,101486.55
2019-05-07T05:52:05.204Z,101472.27
2019-05-07T05:54:42.585Z,101475.02
2019-05-07T05:57:25.314Z,101476.38
2019-05-07T06:00:12.663Z,101477.80
2019-05-07T06:02:53.368Z,101476.78
2019-05-07T06:05:34.439Z,101472.58
2019-05-07T06:08:20.074Z,101477.29
2019-05-07T06:11:02.306Z,101480.34
2019-05-07T06:13:42.684Z,101478.39
2019-05-07T06:16:17.393Z,101474.40
2019-05-07T06:19:07.705Z,101482.34
2019-05-07T06:21:56.481Z,101472.86
2019-05-07T06:24:35.533Z,101471.37
2019-05-07T06:27:07.084Z,101475.45
2019-05-07T06:29:38.962Z,101471.07
2019-05-07T06:32:12.182Z,101468.79
2019-05-07T06:34:44.712Z,101477.02
2019-05-07T06:37:16.245Z,101469.66
2019-05-07T06:40:08.562Z,101479.45
2019-05-07T06:43:03.211Z,101476.03
2019-05-07T06:47:34.535Z,101485.30
2019-05-07T06:50:06.317Z,101484.65
2019-05-07T06:52:37.685Z,101480.23
2019-05-07T06:55:09.713Z,101483.77
2019-05-07T06:57:42.570Z,101481.81
2019-05-07T07:00:37.011Z,101477.47
2019-05-07T07:03:36.706Z,101478.28
2019-05-07T07:06:17.594Z,101485.61
2019-05-07T07:09:04.294Z,101493.91
2019-05-07T07:11:53.659Z,101484.97
2019-05-07T07:14:25.621Z,101499.78
2019-05-07T07:16:57.365Z,101494.73
2019-05-07T07:21:32.671Z,101488.39
2019-05-07T07:25:11.759Z,101490.09
2019-05-07T07:27:43.073Z,101486.72
2019-05-07T07:30:36.886Z,101472.45
2019-05-07T07:33:09.351Z,101467.92
2019-05-07T07:35:42.737Z,101471.44
2019-05-07T07:38:34.985Z,101458.95
2019-05-07T07:41:15.644Z,101459.95
2019-05-07T07:43:48.477Z,101467.11
2019-05-07T07:46:22.194Z,101463.17
2019-05-07T07:49:06.780Z,101463.09
2019-05-07T07:51:37.854Z,101460.00
2019-05-07T07:54:02.262Z,101453.64
2019-05-07T07:57:04.369Z,101463.17
2019-05-07T08:00:12.858Z,101451.78
2019-05-07T08:02:58.063Z,101450.20
2019-05-07T08:05:29.325Z,101448.81
2019-05-07T08:08:02.307Z,101446.06
2019-05-07T08:10:33.778Z,101447.34
2019-05-07T08:13:05.096Z,101455.17
2019-05-07T08:15:36.428Z,101455.62
2019-05-07T08:18:07.744Z,101457.13
2019-05-07T08:22:08.697Z,101452.98
2019-05-07T08:24:42.403Z,101458.65
2019-05-07T08:27:15.346Z,101462.20
2019-05-07T08:29:47.147Z,101460.37
2019-05-07T08:32:36.230Z,101453.61
2019-05-07T08:35:17.522Z,101453.80
2019-05-07T08:37:48.945Z,101447.53
2019-05-07T08:40:22.054Z,101448.80
2019-05-07T08:43:06.794Z,101448.50
2019-05-07T08:46:08.041Z,101443.06
2019-05-07T08:48:44.038Z,101454.80
2019-05-07T08:51:15.451Z,101451.97
2019-05-07T08:53:49.316Z,101445.58
2019-05-07T08:56:22.457Z,101452.53
2019-05-07T08:58:56.896Z,101445.73
2019-05-07T09:01:29.165Z,101458.31
2019-05-07T09:04:04.822Z,101455.91
2019-05-07T09:06:39.500Z,101449.52
2019-05-07T09:09:13.204Z,101446.70
2019-05-07T09:11:44.720Z,101443.86
2019-05-07T09:14:17.738Z,101444.66
2019-05-07T09:16:49.148Z,101434.52
2019-05-07T09:19:21.676Z,101429.70
2019-05-07T09:21:53.429Z,101439.55
2019-05-07T09:24:25.120Z,101437.47
2019-05-07T09:27:22.264Z,101431.39
2019-05-07T09:30:15.839Z,101443.22
2019-05-07T09:33:04.971Z,101438.83
2019-05-07T09:35:48.336Z,101442.00
2019-05-07T09:38:19.754Z,101447.59
2019-05-07T09:40:52.445Z,101447.99
2019-05-07T09:43:24.501Z,101434.09
2019-05-07T09:45:57.727Z,101446.09
2019-05-07T09:48:29.199Z,101446.22
2019-05-07T09:51:03.303Z,101457.71
2019-05-07T09:53:35.202Z,101473.94
2019-05-07T09:56:06.548Z,101469.31
2019-05-07T09:58:50.291Z,101476.33
2019-05-07T10:01:25.165Z,101476.61
2019-05-07T10:05:23.981Z,101469.01
2019-05-07T10:08:07.301Z,101469.23
2019-05-07T10:10:38.995Z,101472.97
2019-05-07T10:13:22.607Z,101464.74
2019-05-07T10:15:54.402Z,101463.39
2019-05-07T10:18:25.688Z,101459.07
2019-05-07T10:20:57.921Z,101452.28
2019-05-07T10:23:29.860Z,101452.90
2019-05-07T10:26:01.893Z,101449.31
2019-05-07T10:28:33.252Z,101446.26
2019-05-07T10:31:10.415Z,101488.14
2019-05-07T10:33:48.314Z,101522.05
2019-05-07T10:36:19.624Z,101509.56
2019-05-07T10:38:52.032Z,101513.29
2019-05-07T10:41:24.460Z,101488.08
2019-05-07T10:43:56.015Z,101479.86
2019-05-07T10:46:42.273Z,101479.03
2019-05-07T10:49:18.767Z,101463.73
2019-05-07T10:52:31.838Z,101470.89
2019-05-07T10:55:03.356Z,101467.04
2019-05-07T10:57:36.626Z,101460.42
2019-05-07T11:00:12.432Z,101450.74
2019-05-07T11:02:44.540Z,101449.23
2019-05-07T11:05:18.466Z,101447.95
2019-05-07T11:07:51.054Z,101446.70
2019-05-07T11:10:22.393Z,101454.03
2019-05-07T11:12:54.223Z,101453.80
2019-05-07T11:15:27.620Z,101444.36
2019-05-07T11:18:24.261Z,101438.77
2019-05-07T11:20:57.737Z,101447.39
2019-05-07T11:23:29.168Z,101441.73
2019-05-07T11:26:02.596Z,101437.66
2019-05-07T11:28:34.206Z,101435.91
2019-05-07T11:31:06.157Z,101434.45
2019-05-07T11:33:41.597Z,101431.34
2019-05-07T11:36:12.238Z,101424.45
2019-05-07T11:38:44.656Z,101420.80
2019-05-07T11:41:18.042Z,101421.38
2019-05-07T11:44:02.007Z,101423.03
2019-05-07T11:46:58.695Z,101439.53
2019-05-07T11:49:48.963Z,101434.26
2019-05-07T11:52:35.640Z,101438.39
2019-05-07T11:55:11.941Z,101424.67
2019-05-07T11:57:52.419Z,101438.80
2019-05-07T12:00:39.642Z,101437.37
2019-05-07T12:03:11.395Z,101430.13
2019-05-07T12:05:42.678Z,101410.14
2019-05-07T12:08:15.171Z,101417.43
2019-05-07T12:10:47.856Z,101408.20
2019-05-07T12:13:21.628Z,101411.52
2019-05-07T12:15:53.233Z,101411.80
2019-05-07T12:18:25.096Z,101404.69
2019-05-07T12:20:56.978Z,101409.56
2019-05-07T12:23:28.535Z,101401.40
2019-05-07T12:26:02.315Z,101403.73
2019-05-07T12:28:33.437Z,101405.87
2019-05-07T12:31:14.731Z,101409.66
2019-05-07T12:34:11.946Z,101408.62
2019-05-07T12:36:43.308Z,101398.44
2019-05-07T12:39:17.656Z,101400.13
2019-05-07T12:41:52.478Z,101406.05
2019-05-07T12:44:25.182Z,101398.84
2019-05-07T12:46:56.469Z,101411.62
2019-05-07T12:49:29.035Z,101408.08
2019-05-07T12:52:19.305Z,101401.81
2019-05-07T12:55:03.306Z,101403.22
2019-05-07T12:57:37.466Z,101412.16
2019-05-07T13:00:37.512Z,101411.30
2019-05-07T13:03:43.022Z,101413.78
2019-05-07T13:06:16.291Z,101419.41
2019-05-07T13:08:47.799Z,101410.17
2019-05-07T13:11:19.042Z,101419.41
2019-05-07T13:13:52.623Z,101421.36
2019-05-07T13:16:23.716Z,101407.94
2019-05-07T13:18:56.054Z,101406.73
2019-05-07T13:21:27.366Z,101403.98
2019-05-07T13:23:58.648Z,101401.65
2019-05-07T13:26:32.179Z,101402.48
2019-05-07T13:29:06.675Z,101394.92
2019-05-07T13:31:40.213Z,101394.70
2019-05-07T13:34:12.611Z,101394.07
2019-05-07T13:36:47.698Z,101388.33
2019-05-07T13:39:26.776Z,101372.95
2019-05-07T13:42:09.325Z,101378.75
2019-05-07T13:44:59.330Z,101371.98
2019-05-07T13:47:41.230Z,101374.94
2019-05-07T13:50:13.133Z,101369.07
2019-05-07T13:52:45.043Z,101374.91
2019-05-07T13:55:18.969Z,101368.03
2019-05-07T13:57:53.076Z,101366.03
2019-05-07T14:00:32.323Z,101361.84
2019-05-07T14:03:03.401Z,101362.83
2019-05-07T14:05:34.773Z,101360.81
2019-05-07T14:08:06.095Z,101356.66
2019-05-07T14:10:37.591Z,101363.91
2019-05-07T14:13:15.837Z,101358.57
2019-05-07T14:15:43.541Z,101359.88
2019-05-07T14:18:14.742Z,101352.17
2019-05-07T14:20:47.165Z,101351.87
2019-05-07T14:23:18.444Z,101352.56
2019-05-07T14:25:52.670Z,101349.55
2019-05-07T14:28:24.476Z,101350.06
2019-05-07T14:30:56.765Z,101360.86
2019-05-07T14:34:02.883Z,101352.16
2019-05-07T14:36:42.730Z,101356.30
2019-05-07T14:39:13.955Z,101342.23
2019-05-07T14:41:46.509Z,101347.28
2019-05-07T14:44:18.085Z,101355.34
2019-05-07T14:46:51.662Z,101347.05
2019-05-07T14:49:22.649Z,101346.80
2019-05-07T14:51:54.193Z,101343.77
2019-05-07T14:54:25.398Z,101345.70
2019-05-07T14:56:57.966Z,101353.55
2019-05-07T14:59:29.359Z,101349.86
2019-05-07T15:02:02.832Z,101353.40
2019-05-07T15:04:34.448Z,101353.30
2019-05-07T15:09:55.003Z,101346.35
2019-05-07T15:12:26.374Z,101342.20
2019-05-07T15:16:57.480Z,101331.07
2019-05-07T15:19:28.931Z,101334.23
2019-05-07T15:22:19.166Z,101340.67
2019-05-07T15:24:52.493Z,101329.34
2019-05-07T15:27:24.262Z,101321.32
2019-05-07T15:29:55.627Z,101328.07
2019-05-07T15:32:27.463Z,101323.90
2019-05-07T15:34:58.645Z,101329.20
2019-05-07T15:37:32.019Z,101338.09
2019-05-07T15:40:03.065Z,101333.86
2019-05-07T15:42:34.877Z,101322.19
2019-05-07T15:45:07.312Z,101316.09
2019-05-07T15:47:42.987Z,101319.80
2019-05-07T15:50:15.908Z,101313.66
2019-05-07T15:52:58.963Z,101308.62
2019-05-07T15:55:33.221Z,101307.69
2019-05-07T15:58:04.451Z,101321.05
2019-05-07T16:00:37.414Z,101326.98
2019-05-07T16:03:15.491Z,101323.78
2019-05-07T16:05:47.618Z,101326.78
2019-05-07T16:08:19.693Z,101308.09
2019-05-07T16:10:53.158Z,101310.66
2019-05-07T16:13:32.710Z,101315.63
2019-05-07T16:16:03.848Z,101320.96
2019-05-07T16:18:54.153Z,101318.01
2019-05-07T16:21:45.521Z,101318.14
2019-05-07T16:24:18.766Z,101309.81
2019-05-07T16:26:52.321Z,101315.80
2019-05-07T16:29:24.204Z,101314.39
2019-05-07T16:31:56.432Z,101323.30
2019-05-07T16:34:28.119Z,101318.63
2019-05-07T16:37:03.514Z,101312.02
2019-05-07T16:39:32.728Z,101302.63
2019-05-07T16:42:03.945Z,101304.73
2019-05-07T16:44:35.658Z,101300.00
2019-05-07T16:47:06.893Z,101309.94
2019-05-07T16:49:38.332Z,101307.03
2019-05-07T16:52:11.856Z,101300.84
2019-05-07T16:54:45.243Z,101302.18
2019-05-07T16:57:24.976Z,101299.70
2019-05-07T16:59:56.397Z,101293.12
2019-05-07T17:02:32.161Z,101304.41
2019-05-07T17:05:12.678Z,101297.36
2019-05-07T17:08:03.033Z,101293.80
2019-05-07T17:10:34.337Z,101289.42
2019-05-07T17:13:05.505Z,101291.83
2019-05-07T17:15:55.353Z,101300.33
2019-05-07T17:18:28.478Z,101302.95
2019-05-07T17:21:02.036Z,101299.83
2019-05-07T17:23:44.135Z,101295.37
2019-05-07T17:26:08.329Z,101299.45
2019-05-07T17:28:39.638Z,101295.78
2019-05-07T17:31:12.404Z,101296.99
2019-05-07T17:33:43.996Z,101296.95
2019-05-07T17:36:15.345Z,101287.33
2019-05-07T17:38:47.137Z,101293.31
2019-05-07T17:41:23.895Z,101286.67
2019-05-07T17:43:52.420Z,101292.41
2019-05-07T17:46:23.605Z,101291.58
2019-05-07T17:48:54.830Z,101292.34
2019-05-07T17:51:45.124Z,101291.52
2019-05-07T17:54:16.756Z,101288.56
2019-05-07T17:56:47.948Z,101290.27
2019-05-07T17:59:19.531Z,101298.23
2019-05-07T18:02:12.599Z,101291.60
2019-05-07T18:04:50.918Z,101290.45
2019-05-07T18:07:19.285Z,101292.14
2019-05-07T18:09:51.104Z,101284.98
2019-05-07T18:12:22.662Z,101290.38
2019-05-07T18:14:53.854Z,101289.75
2019-05-07T18:17:50.852Z,101279.38
2019-05-07T18:20:22.264Z,101278.41
2019-05-07T18:22:53.583Z,101283.39
2019-05-07T18:25:24.777Z,101283.64
2019-05-07T18:27:56.020Z,101286.38
2019-05-07T18:30:27.211Z,101278.27
2019-05-07T18:33:21.997Z,101282.05
2019-05-07T18:35:52.944Z,101286.00
2019-05-07T18:38:24.130Z,101285.80
2019-05-07T18:40:55.357Z,101288.47
2019-05-07T18:43:26.598Z,101280.86
2019-05-07T18:45:58.565Z,101287.23
2019-05-07T18:48:29.875Z,101284.12
2019-05-07T18:51:02.684Z,101284.01
2019-05-07T18:53:34.048Z,101279.75
2019-05-07T18:56:05.518Z,101284.95
2019-05-07T18:58:36.857Z,101285.59
2019-05-07T19:01:11.195Z,101280.61
2019-05-07T19:03:43.051Z,101281.52
2019-05-07T19:06:15.568Z,101282.69
2019-05-07T19:08:47.672Z,101286.71
2019-05-07T19:11:22.840Z,101279.66
2019-05-07T19:13:56.117Z,101282.88
2019-05-07T19:16:27.533Z,101286.39
2019-05-07T19:18:59.039Z,101289.78
2019-05-07T19:21:31.985Z,101277.23
2019-05-07T19:24:03.300Z,101276.72
2019-05-07T19:26:34.973Z,101285.80
2019-05-07T19:29:06.324Z,101287.69
2019-05-07T19:31:38.125Z,101291.02
2019-05-07T19:34:09.373Z,101289.05
2019-05-07T19:36:42.461Z,101282.08
2019-05-07T19:39:13.807Z,101273.63
2019-05-07T19:41:45.412Z,101281.29
2019-05-07T19:44:16.589Z,101275.45
2019-05-07T19:46:47.828Z,101272.72
2019-05-07T19:49:19.069Z,101269.86
2019-05-07T19:51:52.229Z,101273.03
2019-05-07T19:54:23.233Z,101274.49
2019-05-07T19:56:54.454Z,101269.48
2019-05-07T19:59:25.726Z,101267.64
2019-05-07T20:02:02.118Z,101271.66
2019-05-07T20:04:33.265Z,101265.41
2019-05-07T20:07:07.483Z,101258.27
2019-05-07T20:09:39.754Z,101263.59
2019-05-07T20:12:11.025Z,101263.00
2019-05-07T20:14:42.366Z,101258.42
2019-05-07T20:17:13.666Z,101254.11
2019-05-07T20:19:48.485Z,101249.63
2019-05-07T20:22:22.042Z,101250.89
2019-05-07T20:24:52.876Z,101249.56
2019-05-07T20:27:26.305Z,101246.47
2019-05-07T20:29:57.612Z,101248.14
2019-05-07T20:32:28.776Z,101239.94
2019-05-07T20:35:02.575Z,101249.89
2019-05-07T20:37:33.933Z,101241.63
2019-05-07T20:40:05.391Z,101242.58
2019-05-07T20:42:37.812Z,101238.53
2019-05-07T20:45:09.164Z,101243.59
2019-05-07T20:48:03.617Z,101242.70
2019-05-07T20:50:54.608Z,101239.20
2019-05-07T20:53:53.072Z,101237.80
2019-05-07T20:56:55.504Z,101230.39
2019-05-07T20:59:37.356Z,101232.20
2019-05-07T21:02:44.577Z,101227.36
2019-05-07T21:05:32.454Z,101223.56
2019-05-07T21:08:47.180Z,101222.98
2019-05-07T21:11:40.294Z,101231.59
2019-05-07T21:14:37.233Z,101229.44
2019-05-07T21:17:32.261Z,101232.12
2019-05-07T21:20:45.417Z,101222.20
2019-05-07T21:24:46.847Z,101218.39
2019-05-07T21:27:47.376Z,101218.13
2019-05-07T21:31:12.230Z,101216.50
2019-05-07T21:34:45.785Z,101208.19
2019-05-07T21:38:22.487Z,101200.98
2019-05-07T21:42:03.115Z,101204.99
2019-05-07T21:45:17.223Z,101200.03
2019-05-07T21:48:41.774Z,101198.64
2019-05-07T21:55:19.810Z,101188.30
2019-05-07T21:58:48.545Z,101178.61
2019-05-07T22:02:02.531Z,101173.36
2019-05-07T22:05:06.981Z,101177.31
2019-05-07T22:08:35.008Z,101179.53
2019-05-07T22:11:23.069Z,101169.08
2019-05-07T22:14:12.907Z,101164.77
2019-05-07T22:17:08.942Z,101166.58
2019-05-07T22:19:46.951Z,101163.34
2019-05-07T22:22:24.285Z,101157.38
2019-05-07T22:25:17.606Z,101158.98
2019-05-07T22:27:56.796Z,101156.13
2019-05-07T22:30:36.169Z,101146.56
2019-05-07T22:33:15.306Z,101141.84
2019-05-07T22:36:18.018Z,101144.98
2019-05-07T22:42:28.705Z,101143.45
2019-05-07T23:02:55.189Z,101105.22
2019-05-07T23:05:26.455Z,101105.67
2019-05-07T23:07:57.699Z,101101.05
2019-05-07T23:10:29.132Z,101099.13
2019-05-07T23:13:02.312Z,101100.12
2019-05-07T23:15:33.868Z,101097.98
2019-05-07T23:18:05.179Z,101094.02
2019-05-07T23:20:36.455Z,101093.55
2019-05-07T23:23:07.625Z,101092.60
2019-05-07T23:25:39.140Z,101090.01
2019-05-07T23:28:12.436Z,101105.20
2019-05-07T23:30:44.274Z,101095.32
2019-05-07T23:33:16.652Z,101092.34
2019-05-07T23:35:48.118Z,101099.16
2019-05-07T23:38:22.390Z,101097.13
2019-05-07T23:41:08.308Z,101094.81
2019-05-07T23:43:39.663Z,101101.67
2019-05-07T23:46:12.775Z,101101.83
2019-05-07T23:48:43.726Z,101097.25
2019-05-07T23:51:15.381Z,101099.59
2019-05-07T23:53:47.022Z,101101.86
2019-05-07T23:56:18.282Z,101092.53
2019-05-07T23:58:52.626Z,101093.75
